Estación Meteorológica Peña el Pijo (Robertgarden) [ 04/19/21 04:25:18 CEST ]

Fecha Hora Presion(HPa) Temp (°C) Humedad % Rocio (°C) Viento ( m/s) Direccion Lluvia 1Hora(mm) Lluvia 24H(mm) LLuvia Total(mm)
2021-Apr-08 01:09:41 1011.500 7.9 81 4.9 - N     89.61
2021-Apr-08 02:09:47 1011.800 8.0 80 4.8 - N     89.61
2021-Apr-08 03:09:52 1011.500 7.9 80 4.7 - N     89.61
2021-Apr-08 04:09:56 1011.200 7.9 78 4.3 - N     89.61
2021-Apr-08 05:10:03 1011.100 8.1 78 4.5 - N     89.61
2021-Apr-08 06:13:52 1011.100 7.8 78 4.2 - N     89.61
2021-Apr-08 07:09:26 1011.000 7.4 80 4.2 - N     89.61
2021-Apr-08 08:09:22 1011.100 7.2 81 4.2 - N     89.61
2021-Apr-08 09:10:26 1011.500 8.2 79 4.8 - N     89.61
2021-Apr-08 10:09:47 1011.300 9.4 75 5.1 - N     89.61
2021-Apr-08 11:09:09 1011.700 10.8 70 5.6 - N     89.61
2021-Apr-08 12:09:25 1011.600 12.6 65 6.2 - N     89.61
2021-Apr-08 13:09:27 1011.300 12.9 65 6.4 - N     89.61
2021-Apr-08 14:09:44 1010.900 15.1 62 7.9 - N     89.61
2021-Apr-08 15:09:29 1010.100 15.9 58 7.7 - N     89.61
2021-Apr-08 16:09:16 1009.500 18.5 51 8.2 - N     89.61
2021-Apr-08 17:09:31 1009.000 16.4 56 7.6 - N     89.61
2021-Apr-08 18:09:05 1008.900 16.9 54 7.5 - N     89.61
2021-Apr-08 19:09:42 1009.200 12.1 68 6.3 - N     89.61
2021-Apr-08 20:10:08 1009.200 10.3 74 5.9 - N     89.61
2021-Apr-08 21:09:17 1009.500 8.9 79 5.4 - N     89.61
2021-Apr-08 22:09:35 1009.500 8.1 81 5.1 - N     89.61
2021-Apr-08 23:09:26 1009.700 7.3 83 4.6 - N     89.61

Temperatura Máxima:18°    Temperatura Mínima:
Presión Máxima:1011.800 Hpa    Presión Mínima:1008.900 Hpa


Volver